sensor_id;sensor_type;location;lat;lon;timestamp;P1;durP1;ratioP1;P2;durP2;ratioP2
6269;SDS011;3168;51.684;6.954;2023-11-19T00:02:18;10.77;;;7.93;;
6269;SDS011;3168;51.684;6.954;2023-11-19T00:04:44;10.37;;;9.17;;
6269;SDS011;3168;51.684;6.954;2023-11-19T00:07:10;12.67;;;10.20;;
6269;SDS011;3168;51.684;6.954;2023-11-19T00:09:36;9.63;;;8.70;;
6269;SDS011;3168;51.684;6.954;2023-11-19T00:12:04;11.40;;;10.30;;
6269;SDS011;3168;51.684;6.954;2023-11-19T00:14:30;24.07;;;10.70;;
6269;SDS011;3168;51.684;6.954;2023-11-19T00:16:57;12.77;;;9.97;;
6269;SDS011;3168;51.684;6.954;2023-11-19T00:19:23;11.10;;;10.00;;
6269;SDS011;3168;51.684;6.954;2023-11-19T00:21:49;11.60;;;8.90;;
6269;SDS011;3168;51.684;6.954;2023-11-19T00:24:15;16.80;;;11.03;;
6269;SDS011;3168;51.684;6.954;2023-11-19T00:26:41;17.13;;;11.70;;
6269;SDS011;3168;51.684;6.954;2023-11-19T00:29:08;14.40;;;10.80;;
6269;SDS011;3168;51.684;6.954;2023-11-19T00:31:33;18.60;;;11.83;;
6269;SDS011;3168;51.684;6.954;2023-11-19T00:33:59;22.80;;;11.83;;
6269;SDS011;3168;51.684;6.954;2023-11-19T00:36:26;18.63;;;12.40;;
6269;SDS011;3168;51.684;6.954;2023-11-19T00:38:52;22.70;;;13.13;;
6269;SDS011;3168;51.684;6.954;2023-11-19T00:41:18;20.10;;;14.40;;
6269;SDS011;3168;51.684;6.954;2023-11-19T00:43:44;16.77;;;12.57;;
6269;SDS011;3168;51.684;6.954;2023-11-19T00:46:11;26.80;;;12.60;;
6269;SDS011;3168;51.684;6.954;2023-11-19T00:48:37;15.77;;;11.70;;
6269;SDS011;3168;51.684;6.954;2023-11-19T00:51:03;11.73;;;10.40;;
6269;SDS011;3168;51.684;6.954;2023-11-19T00:53:30;16.83;;;11.97;;
6269;SDS011;3168;51.684;6.954;2023-11-19T00:55:56;15.30;;;9.50;;
6269;SDS011;3168;51.684;6.954;2023-11-19T00:58:22;10.13;;;8.77;;
6269;SDS011;3168;51.684;6.954;2023-11-19T01:00:48;8.60;;;7.80;;
6269;SDS011;3168;51.684;6.954;2023-11-19T01:03:14;9.10;;;8.17;;
6269;SDS011;3168;51.684;6.954;2023-11-19T01:05:41;9.03;;;8.23;;
6269;SDS011;3168;51.684;6.954;2023-11-19T01:08:08;14.35;;;7.53;;
6269;SDS011;3168;51.684;6.954;2023-11-19T01:10:36;7.40;;;6.83;;
6269;SDS011;3168;51.684;6.954;2023-11-19T01:13:00;7.37;;;6.70;;
6269;SDS011;3168;51.684;6.954;2023-11-19T01:15:26;6.30;;;5.80;;
6269;SDS011;3168;51.684;6.954;2023-11-19T01:17:52;6.20;;;5.80;;
6269;SDS011;3168;51.684;6.954;2023-11-19T01:20:18;6.87;;;6.23;;
6269;SDS011;3168;51.684;6.954;2023-11-19T01:22:44;6.40;;;5.60;;
6269;SDS011;3168;51.684;6.954;2023-11-19T01:25:09;3.97;;;3.77;;
6269;SDS011;3168;51.684;6.954;2023-11-19T01:27:35;5.30;;;5.00;;
6269;SDS011;3168;51.684;6.954;2023-11-19T01:30:02;5.27;;;4.90;;
6269;SDS011;3168;51.684;6.954;2023-11-19T01:32:29;4.07;;;3.87;;
6269;SDS011;3168;51.684;6.954;2023-11-19T01:34:55;6.00;;;3.57;;
6269;SDS011;3168;51.684;6.954;2023-11-19T01:37:21;4.37;;;4.07;;
6269;SDS011;3168;51.684;6.954;2023-11-19T01:39:47;3.87;;;3.57;;
6269;SDS011;3168;51.684;6.954;2023-11-19T01:42:14;4.00;;;3.83;;
6269;SDS011;3168;51.684;6.954;2023-11-19T01:44:40;2.87;;;2.77;;
6269;SDS011;3168;51.684;6.954;2023-11-19T01:47:06;3.43;;;3.20;;
6269;SDS011;3168;51.684;6.954;2023-11-19T01:49:31;8.03;;;3.67;;
6269;SDS011;3168;51.684;6.954;2023-11-19T01:51:58;7.03;;;3.47;;
6269;SDS011;3168;51.684;6.954;2023-11-19T01:54:24;3.60;;;3.30;;
6269;SDS011;3168;51.684;6.954;2023-11-19T01:56:49;2.30;;;2.30;;
6269;SDS011;3168;51.684;6.954;2023-11-19T01:59:15;3.33;;;2.77;;
6269;SDS011;3168;51.684;6.954;2023-11-19T02:01:41;2.80;;;2.70;;
6269;SDS011;3168;51.684;6.954;2023-11-19T02:04:08;2.07;;;2.07;;
6269;SDS011;3168;51.684;6.954;2023-11-19T02:06:34;2.50;;;2.40;;
6269;SDS011;3168;51.684;6.954;2023-11-19T02:08:59;3.67;;;3.40;;
6269;SDS011;3168;51.684;6.954;2023-11-19T02:11:26;2.70;;;2.60;;
6269;SDS011;3168;51.684;6.954;2023-11-19T02:13:52;3.17;;;2.97;;
6269;SDS011;3168;51.684;6.954;2023-11-19T02:16:17;2.60;;;2.40;;
6269;SDS011;3168;51.684;6.954;2023-11-19T02:18:43;2.90;;;2.80;;
6269;SDS011;3168;51.684;6.954;2023-11-19T02:21:10;3.63;;;3.43;;
6269;SDS011;3168;51.684;6.954;2023-11-19T02:23:36;2.23;;;2.13;;
6269;SDS011;3168;51.684;6.954;2023-11-19T02:27:08;2.97;;;2.77;;
6269;SDS011;3168;51.684;6.954;2023-11-19T02:28:59;2.53;;;2.33;;
6269;SDS011;3168;51.684;6.954;2023-11-19T02:31:25;3.20;;;3.10;;
6269;SDS011;3168;51.684;6.954;2023-11-19T02:33:51;2.73;;;2.63;;
6269;SDS011;3168;51.684;6.954;2023-11-19T02:36:17;5.70;;;2.57;;
6269;SDS011;3168;51.684;6.954;2023-11-19T02:38:43;2.13;;;2.13;;
6269;SDS011;3168;51.684;6.954;2023-11-19T02:41:09;7.20;;;3.20;;
6269;SDS011;3168;51.684;6.954;2023-11-19T02:43:35;3.33;;;2.40;;
6269;SDS011;3168;51.684;6.954;2023-11-19T02:46:01;2.93;;;2.10;;
6269;SDS011;3168;51.684;6.954;2023-11-19T02:48:27;2.60;;;2.50;;
6269;SDS011;3168;51.684;6.954;2023-11-19T02:50:53;3.67;;;2.40;;
6269;SDS011;3168;51.684;6.954;2023-11-19T02:53:19;2.10;;;1.97;;
6269;SDS011;3168;51.684;6.954;2023-11-19T02:55:45;5.40;;;3.37;;
6269;SDS011;3168;51.684;6.954;2023-11-19T02:58:11;5.07;;;2.57;;
6269;SDS011;3168;51.684;6.954;2023-11-19T03:00:39;2.70;;;2.60;;
6269;SDS011;3168;51.684;6.954;2023-11-19T03:03:02;4.63;;;2.90;;
6269;SDS011;3168;51.684;6.954;2023-11-19T03:05:31;2.93;;;2.53;;
6269;SDS011;3168;51.684;6.954;2023-11-19T03:07:57;4.40;;;2.07;;
6269;SDS011;3168;51.684;6.954;2023-11-19T03:10:23;2.27;;;2.10;;
6269;SDS011;3168;51.684;6.954;2023-11-19T03:12:55;4.17;;;3.30;;
6269;SDS011;3168;51.684;6.954;2023-11-19T03:15:21;5.47;;;2.63;;
6269;SDS011;3168;51.684;6.954;2023-11-19T03:17:47;2.53;;;2.43;;
6269;SDS011;3168;51.684;6.954;2023-11-19T03:20:13;2.40;;;2.30;;
6269;SDS011;3168;51.684;6.954;2023-11-19T03:22:41;6.20;;;3.60;;
6269;SDS011;3168;51.684;6.954;2023-11-19T03:25:06;13.83;;;2.70;;
6269;SDS011;3168;51.684;6.954;2023-11-19T03:27:32;2.53;;;2.43;;
6269;SDS011;3168;51.684;6.954;2023-11-19T03:29:58;6.30;;;3.70;;
6269;SDS011;3168;51.684;6.954;2023-11-19T03:32:24;7.20;;;3.00;;
6269;SDS011;3168;51.684;6.954;2023-11-19T03:34:50;7.20;;;2.33;;
6269;SDS011;3168;51.684;6.954;2023-11-19T03:37:16;3.53;;;2.00;;
6269;SDS011;3168;51.684;6.954;2023-11-19T03:39:42;4.80;;;2.03;;
6269;SDS011;3168;51.684;6.954;2023-11-19T03:42:11;1.80;;;1.80;;
6269;SDS011;3168;51.684;6.954;2023-11-19T03:44:40;4.30;;;2.10;;
6269;SDS011;3168;51.684;6.954;2023-11-19T03:47:06;4.20;;;2.77;;
6269;SDS011;3168;51.684;6.954;2023-11-19T03:49:32;6.70;;;3.50;;
6269;SDS011;3168;51.684;6.954;2023-11-19T03:51:59;5.97;;;2.57;;
6269;SDS011;3168;51.684;6.954;2023-11-19T03:54:24;2.17;;;2.03;;
6269;SDS011;3168;51.684;6.954;2023-11-19T03:56:50;6.23;;;2.83;;
6269;SDS011;3168;51.684;6.954;2023-11-19T03:59:16;6.43;;;3.00;;
6269;SDS011;3168;51.684;6.954;2023-11-19T04:01:42;10.73;;;2.70;;
6269;SDS011;3168;51.684;6.954;2023-11-19T04:04:08;15.27;;;3.50;;
6269;SDS011;3168;51.684;6.954;2023-11-19T04:06:33;2.60;;;2.40;;
6269;SDS011;3168;51.684;6.954;2023-11-19T04:08:59;4.00;;;3.10;;
6269;SDS011;3168;51.684;6.954;2023-11-19T04:11:32;11.80;;;2.73;;
6269;SDS011;3168;51.684;6.954;2023-11-19T04:13:58;4.47;;;3.20;;
6269;SDS011;3168;51.684;6.954;2023-11-19T04:16:26;7.23;;;3.10;;
6269;SDS011;3168;51.684;6.954;2023-11-19T04:18:51;2.43;;;2.23;;
6269;SDS011;3168;51.684;6.954;2023-11-19T04:21:17;5.80;;;2.67;;
6269;SDS011;3168;51.684;6.954;2023-11-19T04:23:43;4.37;;;3.40;;
6269;SDS011;3168;51.684;6.954;2023-11-19T04:26:09;7.87;;;3.27;;
6269;SDS011;3168;51.684;6.954;2023-11-19T04:28:34;4.53;;;2.40;;
6269;SDS011;3168;51.684;6.954;2023-11-19T04:31:00;10.63;;;3.50;;
6269;SDS011;3168;51.684;6.954;2023-11-19T04:33:26;11.20;;;2.73;;
6269;SDS011;3168;51.684;6.954;2023-11-19T04:35:52;12.20;;;3.07;;
6269;SDS011;3168;51.684;6.954;2023-11-19T04:38:18;7.73;;;2.97;;
6269;SDS011;3168;51.684;6.954;2023-11-19T04:40:44;20.67;;;2.97;;
6269;SDS011;3168;51.684;6.954;2023-11-19T04:43:09;20.03;;;3.57;;
6269;SDS011;3168;51.684;6.954;2023-11-19T04:45:35;17.70;;;2.40;;
6269;SDS011;3168;51.684;6.954;2023-11-19T04:48:01;21.70;;;4.03;;
6269;SDS011;3168;51.684;6.954;2023-11-19T04:50:27;8.57;;;2.33;;
6269;SDS011;3168;51.684;6.954;2023-11-19T04:52:53;7.13;;;2.43;;
6269;SDS011;3168;51.684;6.954;2023-11-19T04:55:19;3.63;;;2.67;;
6269;SDS011;3168;51.684;6.954;2023-11-19T04:57:45;6.50;;;2.57;;
6269;SDS011;3168;51.684;6.954;2023-11-19T05:00:11;13.13;;;2.23;;
6269;SDS011;3168;51.684;6.954;2023-11-19T05:02:38;3.23;;;1.70;;
6269;SDS011;3168;51.684;6.954;2023-11-19T05:05:04;17.23;;;3.13;;
6269;SDS011;3168;51.684;6.954;2023-11-19T05:07:30;4.00;;;2.20;;
6269;SDS011;3168;51.684;6.954;2023-11-19T05:09:56;8.90;;;2.00;;
6269;SDS011;3168;51.684;6.954;2023-11-19T05:12:21;5.50;;;1.93;;
6269;SDS011;3168;51.684;6.954;2023-11-19T05:14:47;8.23;;;2.53;;
6269;SDS011;3168;51.684;6.954;2023-11-19T05:17:14;10.33;;;3.70;;
6269;SDS011;3168;51.684;6.954;2023-11-19T05:19:40;14.33;;;2.80;;
6269;SDS011;3168;51.684;6.954;2023-11-19T05:22:06;2.93;;;2.07;;
6269;SDS011;3168;51.684;6.954;2023-11-19T05:24:31;31.63;;;3.37;;
6269;SDS011;3168;51.684;6.954;2023-11-19T05:26:57;11.63;;;3.07;;
6269;SDS011;3168;51.684;6.954;2023-11-19T05:29:23;9.80;;;2.50;;
6269;SDS011;3168;51.684;6.954;2023-11-19T05:31:49;14.07;;;2.67;;
6269;SDS011;3168;51.684;6.954;2023-11-19T05:34:15;9.53;;;3.03;;
6269;SDS011;3168;51.684;6.954;2023-11-19T05:36:41;7.30;;;3.00;;
6269;SDS011;3168;51.684;6.954;2023-11-19T05:39:07;11.00;;;2.40;;
6269;SDS011;3168;51.684;6.954;2023-11-19T05:41:32;16.53;;;3.77;;
6269;SDS011;3168;51.684;6.954;2023-11-19T05:43:58;18.57;;;3.63;;
6269;SDS011;3168;51.684;6.954;2023-11-19T05:46:24;15.77;;;3.27;;
6269;SDS011;3168;51.684;6.954;2023-11-19T05:48:51;23.10;;;3.93;;
6269;SDS011;3168;51.684;6.954;2023-11-19T05:51:17;7.70;;;2.90;;
6269;SDS011;3168;51.684;6.954;2023-11-19T05:53:42;6.70;;;4.17;;
6269;SDS011;3168;51.684;6.954;2023-11-19T05:56:08;11.30;;;4.73;;
6269;SDS011;3168;51.684;6.954;2023-11-19T05:58:34;9.27;;;2.70;;
6269;SDS011;3168;51.684;6.954;2023-11-19T06:01:01;10.33;;;2.77;;
6269;SDS011;3168;51.684;6.954;2023-11-19T06:03:26;26.07;;;2.80;;
6269;SDS011;3168;51.684;6.954;2023-11-19T06:05:52;11.30;;;2.40;;
6269;SDS011;3168;51.684;6.954;2023-11-19T06:08:18;13.23;;;2.40;;
6269;SDS011;3168;51.684;6.954;2023-11-19T06:10:44;10.93;;;3.80;;
6269;SDS011;3168;51.684;6.954;2023-11-19T06:13:13;17.83;;;3.80;;
6269;SDS011;3168;51.684;6.954;2023-11-19T06:15:38;7.10;;;2.20;;
6269;SDS011;3168;51.684;6.954;2023-11-19T06:18:04;13.27;;;2.80;;
6269;SDS011;3168;51.684;6.954;2023-11-19T06:20:43;14.30;;;3.10;;
6269;SDS011;3168;51.684;6.954;2023-11-19T06:23:25;13.83;;;2.40;;
6269;SDS011;3168;51.684;6.954;2023-11-19T06:25:51;7.60;;;3.07;;
6269;SDS011;3168;51.684;6.954;2023-11-19T06:28:17;8.57;;;3.03;;
6269;SDS011;3168;51.684;6.954;2023-11-19T06:30:43;16.63;;;2.23;;
6269;SDS011;3168;51.684;6.954;2023-11-19T06:33:09;8.67;;;2.60;;
6269;SDS011;3168;51.684;6.954;2023-11-19T06:35:35;24.10;;;3.73;;
6269;SDS011;3168;51.684;6.954;2023-11-19T06:38:02;9.57;;;2.10;;
6269;SDS011;3168;51.684;6.954;2023-11-19T06:40:27;13.63;;;2.33;;
6269;SDS011;3168;51.684;6.954;2023-11-19T06:42:53;8.63;;;2.03;;
6269;SDS011;3168;51.684;6.954;2023-11-19T06:45:19;4.90;;;2.57;;
6269;SDS011;3168;51.684;6.954;2023-11-19T06:47:45;11.33;;;4.00;;
6269;SDS011;3168;51.684;6.954;2023-11-19T06:50:11;11.10;;;2.67;;
6269;SDS011;3168;51.684;6.954;2023-11-19T06:52:37;10.90;;;2.53;;
6269;SDS011;3168;51.684;6.954;2023-11-19T06:55:03;7.93;;;2.57;;
6269;SDS011;3168;51.684;6.954;2023-11-19T06:57:29;9.10;;;2.70;;
6269;SDS011;3168;51.684;6.954;2023-11-19T06:59:55;8.93;;;2.10;;
6269;SDS011;3168;51.684;6.954;2023-11-19T07:02:21;13.77;;;4.30;;
6269;SDS011;3168;51.684;6.954;2023-11-19T07:04:47;14.60;;;3.87;;
6269;SDS011;3168;51.684;6.954;2023-11-19T07:07:12;10.00;;;2.43;;
6269;SDS011;3168;51.684;6.954;2023-11-19T07:09:38;10.77;;;2.17;;
6269;SDS011;3168;51.684;6.954;2023-11-19T07:12:04;12.97;;;2.67;;
6269;SDS011;3168;51.684;6.954;2023-11-19T07:14:31;10.90;;;3.97;;
6269;SDS011;3168;51.684;6.954;2023-11-19T07:16:57;18.43;;;2.63;;
6269;SDS011;3168;51.684;6.954;2023-11-19T07:19:23;10.77;;;3.03;;
6269;SDS011;3168;51.684;6.954;2023-11-19T07:21:48;17.47;;;3.53;;
6269;SDS011;3168;51.684;6.954;2023-11-19T07:24:14;8.17;;;1.60;;
6269;SDS011;3168;51.684;6.954;2023-11-19T07:26:41;16.20;;;2.40;;
6269;SDS011;3168;51.684;6.954;2023-11-19T07:29:06;19.23;;;3.20;;
6269;SDS011;3168;51.684;6.954;2023-11-19T07:31:32;16.83;;;2.57;;
6269;SDS011;3168;51.684;6.954;2023-11-19T07:33:58;22.47;;;2.37;;
6269;SDS011;3168;51.684;6.954;2023-11-19T07:36:25;14.50;;;3.63;;
6269;SDS011;3168;51.684;6.954;2023-11-19T07:38:50;6.90;;;4.03;;
6269;SDS011;3168;51.684;6.954;2023-11-19T07:41:16;24.50;;;3.07;;
6269;SDS011;3168;51.684;6.954;2023-11-19T07:43:43;6.80;;;2.00;;
6269;SDS011;3168;51.684;6.954;2023-11-19T07:46:10;12.77;;;3.50;;
6269;SDS011;3168;51.684;6.954;2023-11-19T07:48:36;13.33;;;2.50;;
6269;SDS011;3168;51.684;6.954;2023-11-19T07:51:02;16.27;;;2.93;;
6269;SDS011;3168;51.684;6.954;2023-11-19T07:53:28;24.63;;;3.10;;
6269;SDS011;3168;51.684;6.954;2023-11-19T07:55:54;7.17;;;2.50;;
6269;SDS011;3168;51.684;6.954;2023-11-19T07:58:20;7.20;;;2.20;;
6269;SDS011;3168;51.684;6.954;2023-11-19T08:00:46;7.93;;;1.80;;
6269;SDS011;3168;51.684;6.954;2023-11-19T08:03:12;20.67;;;2.70;;
6269;SDS011;3168;51.684;6.954;2023-11-19T08:05:38;19.97;;;3.43;;
6269;SDS011;3168;51.684;6.954;2023-11-19T08:08:04;4.50;;;1.93;;
6269;SDS011;3168;51.684;6.954;2023-11-19T08:10:31;16.80;;;2.37;;
6269;SDS011;3168;51.684;6.954;2023-11-19T08:12:57;10.83;;;2.67;;
6269;SDS011;3168;51.684;6.954;2023-11-19T08:15:23;3.93;;;2.00;;
6269;SDS011;3168;51.684;6.954;2023-11-19T08:17:49;11.50;;;2.67;;
6269;SDS011;3168;51.684;6.954;2023-11-19T08:20:15;9.83;;;2.00;;
6269;SDS011;3168;51.684;6.954;2023-11-19T08:22:41;11.00;;;2.10;;
6269;SDS011;3168;51.684;6.954;2023-11-19T08:25:07;3.53;;;2.37;;
6269;SDS011;3168;51.684;6.954;2023-11-19T08:27:33;21.50;;;2.80;;
6269;SDS011;3168;51.684;6.954;2023-11-19T08:29:59;13.60;;;2.47;;
6269;SDS011;3168;51.684;6.954;2023-11-19T08:32:25;8.30;;;3.80;;
6269;SDS011;3168;51.684;6.954;2023-11-19T08:34:51;3.53;;;2.37;;
6269;SDS011;3168;51.684;6.954;2023-11-19T08:37:17;14.20;;;3.13;;
6269;SDS011;3168;51.684;6.954;2023-11-19T08:39:44;19.03;;;3.97;;
6269;SDS011;3168;51.684;6.954;2023-11-19T08:42:10;8.00;;;3.27;;
6269;SDS011;3168;51.684;6.954;2023-11-19T08:44:35;11.87;;;3.67;;
6269;SDS011;3168;51.684;6.954;2023-11-19T08:47:01;6.80;;;2.30;;
6269;SDS011;3168;51.684;6.954;2023-11-19T08:49:27;4.10;;;2.20;;
6269;SDS011;3168;51.684;6.954;2023-11-19T08:51:53;15.63;;;4.87;;
6269;SDS011;3168;51.684;6.954;2023-11-19T08:54:19;13.67;;;1.87;;
6269;SDS011;3168;51.684;6.954;2023-11-19T08:56:45;5.50;;;2.00;;
6269;SDS011;3168;51.684;6.954;2023-11-19T08:59:11;7.60;;;1.90;;
6269;SDS011;3168;51.684;6.954;2023-11-19T09:01:36;8.17;;;2.50;;
6269;SDS011;3168;51.684;6.954;2023-11-19T09:04:02;16.43;;;3.50;;
6269;SDS011;3168;51.684;6.954;2023-11-19T09:06:28;24.50;;;3.23;;
6269;SDS011;3168;51.684;6.954;2023-11-19T09:08:54;21.77;;;3.03;;
6269;SDS011;3168;51.684;6.954;2023-11-19T09:11:21;20.05;;;2.95;;
6269;SDS011;3168;51.684;6.954;2023-11-19T09:13:47;4.37;;;1.97;;
6269;SDS011;3168;51.684;6.954;2023-11-19T09:16:13;4.20;;;1.97;;
6269;SDS011;3168;51.684;6.954;2023-11-19T09:18:39;15.37;;;2.13;;
6269;SDS011;3168;51.684;6.954;2023-11-19T09:21:05;6.53;;;2.33;;
6269;SDS011;3168;51.684;6.954;2023-11-19T09:23:31;14.00;;;3.60;;
6269;SDS011;3168;51.684;6.954;2023-11-19T09:25:56;21.23;;;3.53;;
6269;SDS011;3168;51.684;6.954;2023-11-19T09:28:22;4.13;;;2.50;;
6269;SDS011;3168;51.684;6.954;2023-11-19T09:30:48;14.57;;;2.90;;
6269;SDS011;3168;51.684;6.954;2023-11-19T09:33:14;11.13;;;3.13;;
6269;SDS011;3168;51.684;6.954;2023-11-19T09:35:40;8.87;;;3.60;;
6269;SDS011;3168;51.684;6.954;2023-11-19T09:38:06;6.60;;;1.83;;
6269;SDS011;3168;51.684;6.954;2023-11-19T09:40:32;10.70;;;2.80;;
6269;SDS011;3168;51.684;6.954;2023-11-19T09:42:58;9.03;;;2.33;;
6269;SDS011;3168;51.684;6.954;2023-11-19T09:45:25;15.50;;;4.47;;
6269;SDS011;3168;51.684;6.954;2023-11-19T09:47:50;14.10;;;3.53;;
6269;SDS011;3168;51.684;6.954;2023-11-19T09:50:17;17.20;;;3.60;;
6269;SDS011;3168;51.684;6.954;2023-11-19T09:52:43;7.03;;;1.63;;
6269;SDS011;3168;51.684;6.954;2023-11-19T09:55:08;18.90;;;3.70;;
6269;SDS011;3168;51.684;6.954;2023-11-19T09:57:34;10.33;;;2.10;;
6269;SDS011;3168;51.684;6.954;2023-11-19T10:00:00;8.23;;;3.10;;
6269;SDS011;3168;51.684;6.954;2023-11-19T10:02:26;6.20;;;2.73;;
6269;SDS011;3168;51.684;6.954;2023-11-19T10:04:52;17.43;;;3.37;;
6269;SDS011;3168;51.684;6.954;2023-11-19T10:07:18;10.13;;;2.50;;
6269;SDS011;3168;51.684;6.954;2023-11-19T10:09:44;5.30;;;2.37;;
6269;SDS011;3168;51.684;6.954;2023-11-19T10:12:10;5.03;;;1.47;;
6269;SDS011;3168;51.684;6.954;2023-11-19T10:14:35;17.20;;;3.17;;
6269;SDS011;3168;51.684;6.954;2023-11-19T10:17:01;11.97;;;2.30;;
6269;SDS011;3168;51.684;6.954;2023-11-19T10:19:27;27.37;;;4.03;;
6269;SDS011;3168;51.684;6.954;2023-11-19T10:21:53;6.47;;;1.73;;
6269;SDS011;3168;51.684;6.954;2023-11-19T10:24:30;17.43;;;2.63;;
6269;SDS011;3168;51.684;6.954;2023-11-19T10:26:45;15.23;;;3.27;;
6269;SDS011;3168;51.684;6.954;2023-11-19T10:29:12;10.70;;;3.40;;
6269;SDS011;3168;51.684;6.954;2023-11-19T10:31:38;17.83;;;2.30;;
6269;SDS011;3168;51.684;6.954;2023-11-19T10:34:04;10.03;;;2.90;;
6269;SDS011;3168;51.684;6.954;2023-11-19T10:39:03;7.90;;;2.37;;
6269;SDS011;3168;51.684;6.954;2023-11-19T10:41:29;11.23;;;2.60;;
6269;SDS011;3168;51.684;6.954;2023-11-19T10:43:56;8.43;;;3.70;;
6269;SDS011;3168;51.684;6.954;2023-11-19T10:46:21;28.20;;;2.50;;
6269;SDS011;3168;51.684;6.954;2023-11-19T10:48:47;6.57;;;2.20;;
6269;SDS011;3168;51.684;6.954;2023-11-19T10:51:13;17.23;;;3.17;;
6269;SDS011;3168;51.684;6.954;2023-11-19T10:53:39;9.80;;;2.50;;
6269;SDS011;3168;51.684;6.954;2023-11-19T10:56:06;8.07;;;1.93;;
6269;SDS011;3168;51.684;6.954;2023-11-19T10:58:32;14.33;;;5.03;;
6269;SDS011;3168;51.684;6.954;2023-11-19T11:00:57;12.57;;;2.70;;
6269;SDS011;3168;51.684;6.954;2023-11-19T11:03:25;6.07;;;2.90;;
6269;SDS011;3168;51.684;6.954;2023-11-19T11:05:51;11.07;;;2.40;;
6269;SDS011;3168;51.684;6.954;2023-11-19T11:08:16;13.50;;;2.13;;
6269;SDS011;3168;51.684;6.954;2023-11-19T11:10:43;8.07;;;2.60;;
6269;SDS011;3168;51.684;6.954;2023-11-19T11:13:08;11.63;;;2.20;;
6269;SDS011;3168;51.684;6.954;2023-11-19T11:15:34;8.93;;;2.63;;
6269;SDS011;3168;51.684;6.954;2023-11-19T11:18:01;18.00;;;2.37;;
6269;SDS011;3168;51.684;6.954;2023-11-19T11:20:29;13.93;;;3.33;;
6269;SDS011;3168;51.684;6.954;2023-11-19T11:28:43;6.50;;;1.83;;
6269;SDS011;3168;51.684;6.954;2023-11-19T11:31:09;21.40;;;3.47;;
6269;SDS011;3168;51.684;6.954;2023-11-19T11:33:59;25.43;;;3.50;;
6269;SDS011;3168;51.684;6.954;2023-11-19T11:36:21;5.77;;;3.20;;
6269;SDS011;3168;51.684;6.954;2023-11-19T11:38:48;12.93;;;2.43;;
6269;SDS011;3168;51.684;6.954;2023-11-19T11:41:15;17.43;;;3.00;;
6269;SDS011;3168;51.684;6.954;2023-11-19T11:43:46;12.73;;;2.57;;
6269;SDS011;3168;51.684;6.954;2023-11-19T11:48:50;8.03;;;1.57;;
6269;SDS011;3168;51.684;6.954;2023-11-19T11:51:16;3.30;;;1.20;;
6269;SDS011;3168;51.684;6.954;2023-11-19T11:53:42;14.33;;;2.90;;
6269;SDS011;3168;51.684;6.954;2023-11-19T11:56:08;5.90;;;2.60;;
6269;SDS011;3168;51.684;6.954;2023-11-19T11:58:35;8.83;;;2.40;;
6269;SDS011;3168;51.684;6.954;2023-11-19T12:01:01;8.17;;;2.43;;
6269;SDS011;3168;51.684;6.954;2023-11-19T12:03:27;14.43;;;2.00;;
6269;SDS011;3168;51.684;6.954;2023-11-19T12:05:52;12.33;;;3.03;;
6269;SDS011;3168;51.684;6.954;2023-11-19T12:08:19;3.50;;;2.17;;
6269;SDS011;3168;51.684;6.954;2023-11-19T12:10:45;11.50;;;3.57;;
6269;SDS011;3168;51.684;6.954;2023-11-19T12:13:10;8.82;;;2.35;;
6269;SDS011;3168;51.684;6.954;2023-11-19T12:18:14;5.90;;;2.37;;
6269;SDS011;3168;51.684;6.954;2023-11-19T12:20:40;8.53;;;2.33;;
6269;SDS011;3168;51.684;6.954;2023-11-19T12:23:06;7.13;;;2.20;;
6269;SDS011;3168;51.684;6.954;2023-11-19T12:25:32;15.93;;;4.10;;
6269;SDS011;3168;51.684;6.954;2023-11-19T12:27:58;4.97;;;1.90;;
6269;SDS011;3168;51.684;6.954;2023-11-19T12:30:24;5.47;;;1.80;;
6269;SDS011;3168;51.684;6.954;2023-11-19T12:32:50;5.03;;;2.00;;
6269;SDS011;3168;51.684;6.954;2023-11-19T12:35:15;10.80;;;3.23;;
6269;SDS011;3168;51.684;6.954;2023-11-19T12:37:42;4.93;;;1.83;;
6269;SDS011;3168;51.684;6.954;2023-11-19T12:40:11;10.20;;;2.83;;
6269;SDS011;3168;51.684;6.954;2023-11-19T12:42:41;4.23;;;1.30;;
6269;SDS011;3168;51.684;6.954;2023-11-19T12:45:07;19.80;;;4.03;;
6269;SDS011;3168;51.684;6.954;2023-11-19T12:47:34;19.83;;;4.57;;
6269;SDS011;3168;51.684;6.954;2023-11-19T12:50:00;2.13;;;2.00;;
6269;SDS011;3168;51.684;6.954;2023-11-19T12:52:26;5.00;;;2.60;;
6269;SDS011;3168;51.684;6.954;2023-11-19T12:54:51;17.13;;;2.70;;
6269;SDS011;3168;51.684;6.954;2023-11-19T12:57:17;9.63;;;2.20;;
6269;SDS011;3168;51.684;6.954;2023-11-19T12:59:54;5.67;;;1.87;;
6269;SDS011;3168;51.684;6.954;2023-11-19T13:02:19;5.90;;;2.00;;
6269;SDS011;3168;51.684;6.954;2023-11-19T13:04:44;17.80;;;3.33;;
6269;SDS011;3168;51.684;6.954;2023-11-19T13:07:10;4.10;;;1.60;;
6269;SDS011;3168;51.684;6.954;2023-11-19T13:09:36;9.23;;;3.20;;
6269;SDS011;3168;51.684;6.954;2023-11-19T13:12:12;3.73;;;1.47;;
6269;SDS011;3168;51.684;6.954;2023-11-19T13:17:01;4.30;;;1.20;;
6269;SDS011;3168;51.684;6.954;2023-11-19T13:19:26;1.40;;;1.20;;
6269;SDS011;3168;51.684;6.954;2023-11-19T13:21:52;9.70;;;2.67;;
6269;SDS011;3168;51.684;6.954;2023-11-19T13:24:18;7.20;;;2.20;;
6269;SDS011;3168;51.684;6.954;2023-11-19T13:26:44;10.53;;;3.27;;
6269;SDS011;3168;51.684;6.954;2023-11-19T13:29:10;8.17;;;1.83;;
6269;SDS011;3168;51.684;6.954;2023-11-19T13:31:36;12.63;;;2.33;;
6269;SDS011;3168;51.684;6.954;2023-11-19T13:34:01;5.33;;;2.70;;
6269;SDS011;3168;51.684;6.954;2023-11-19T13:36:27;7.60;;;2.43;;
6269;SDS011;3168;51.684;6.954;2023-11-19T13:38:54;7.57;;;2.40;;
6269;SDS011;3168;51.684;6.954;2023-11-19T13:41:20;6.07;;;2.13;;
6269;SDS011;3168;51.684;6.954;2023-11-19T13:43:47;5.80;;;1.77;;
6269;SDS011;3168;51.684;6.954;2023-11-19T13:46:13;13.57;;;2.80;;
6269;SDS011;3168;51.684;6.954;2023-11-19T13:48:38;6.33;;;2.00;;
6269;SDS011;3168;51.684;6.954;2023-11-19T13:51:04;6.33;;;2.27;;
6269;SDS011;3168;51.684;6.954;2023-11-19T13:53:31;11.90;;;2.30;;
6269;SDS011;3168;51.684;6.954;2023-11-19T13:55:57;1.90;;;1.53;;
6269;SDS011;3168;51.684;6.954;2023-11-19T13:58:23;6.27;;;2.00;;
6269;SDS011;3168;51.684;6.954;2023-11-19T14:00:49;9.83;;;2.30;;
6269;SDS011;3168;51.684;6.954;2023-11-19T14:03:15;6.63;;;3.10;;
6269;SDS011;3168;51.684;6.954;2023-11-19T14:05:41;7.83;;;1.30;;
6269;SDS011;3168;51.684;6.954;2023-11-19T14:08:06;5.17;;;1.53;;
6269;SDS011;3168;51.684;6.954;2023-11-19T14:10:37;10.03;;;1.93;;
6269;SDS011;3168;51.684;6.954;2023-11-19T14:13:03;15.97;;;2.10;;
6269;SDS011;3168;51.684;6.954;2023-11-19T14:15:29;7.70;;;2.07;;
6269;SDS011;3168;51.684;6.954;2023-11-19T14:17:55;10.70;;;1.83;;
6269;SDS011;3168;51.684;6.954;2023-11-19T14:20:20;33.97;;;1.90;;
6269;SDS011;3168;51.684;6.954;2023-11-19T14:22:46;12.47;;;2.00;;
6269;SDS011;3168;51.684;6.954;2023-11-19T14:25:12;16.10;;;2.60;;
6269;SDS011;3168;51.684;6.954;2023-11-19T14:27:38;1.73;;;1.60;;
6269;SDS011;3168;51.684;6.954;2023-11-19T14:30:05;3.23;;;1.13;;
6269;SDS011;3168;51.684;6.954;2023-11-19T14:32:31;10.83;;;2.33;;
6269;SDS011;3168;51.684;6.954;2023-11-19T14:34:57;9.13;;;3.00;;
6269;SDS011;3168;51.684;6.954;2023-11-19T14:37:23;6.43;;;2.00;;
6269;SDS011;3168;51.684;6.954;2023-11-19T14:39:49;18.23;;;1.90;;
6269;SDS011;3168;51.684;6.954;2023-11-19T14:42:15;4.90;;;1.20;;
6269;SDS011;3168;51.684;6.954;2023-11-19T14:44:41;15.13;;;1.47;;
6269;SDS011;3168;51.684;6.954;2023-11-19T14:47:07;7.70;;;1.97;;
6269;SDS011;3168;51.684;6.954;2023-11-19T14:49:34;8.33;;;3.27;;
6269;SDS011;3168;51.684;6.954;2023-11-19T14:51:59;7.87;;;1.90;;
6269;SDS011;3168;51.684;6.954;2023-11-19T14:54:25;6.63;;;2.90;;
6269;SDS011;3168;51.684;6.954;2023-11-19T14:56:51;14.43;;;2.07;;
6269;SDS011;3168;51.684;6.954;2023-11-19T14:59:17;12.93;;;2.27;;
6269;SDS011;3168;51.684;6.954;2023-11-19T15:01:44;15.93;;;2.53;;
6269;SDS011;3168;51.684;6.954;2023-11-19T15:04:08;2.07;;;1.97;;
6269;SDS011;3168;51.684;6.954;2023-11-19T15:06:34;10.07;;;2.33;;
6269;SDS011;3168;51.684;6.954;2023-11-19T15:09:00;4.00;;;2.50;;
6269;SDS011;3168;51.684;6.954;2023-11-19T15:11:26;24.10;;;3.10;;
6269;SDS011;3168;51.684;6.954;2023-11-19T15:13:52;6.63;;;2.77;;
6269;SDS011;3168;51.684;6.954;2023-11-19T15:16:17;6.70;;;2.00;;
6269;SDS011;3168;51.684;6.954;2023-11-19T15:18:43;4.87;;;2.17;;